createdAt,value
2022-11-10T00:00:28.732Z,1.40
2022-11-10T00:03:13.883Z,0.75
2022-11-10T00:06:01.248Z,1.13
2022-11-10T00:08:46.360Z,2.40
2022-11-10T00:11:31.381Z,0.70
2022-11-10T00:14:34.919Z,0.57
2022-11-10T00:17:20.235Z,0.80
2022-11-10T00:20:05.932Z,2.40
2022-11-10T00:22:50.919Z,1.73
2022-11-10T00:25:35.959Z,1.05
2022-11-10T00:28:20.709Z,1.42
2022-11-10T00:31:07.066Z,1.10
2022-11-10T00:33:51.788Z,1.13
2022-11-10T00:36:36.753Z,0.80
2022-11-10T00:39:21.984Z,0.90
2022-11-10T00:42:07.758Z,1.85
2022-11-10T00:44:52.549Z,0.60
2022-11-10T00:47:37.465Z,1.70
2022-11-10T00:50:22.404Z,1.48
2022-11-10T00:53:07.235Z,0.90
2022-11-10T00:55:52.111Z,1.08
2022-11-10T00:58:37.125Z,0.98
2022-11-10T01:01:24.329Z,0.90
2022-11-10T01:04:09.273Z,0.65
2022-11-10T01:06:54.165Z,0.75
2022-11-10T01:09:38.934Z,0.70
2022-11-10T01:12:23.866Z,0.75
2022-11-10T01:15:09.506Z,0.82
2022-11-10T01:17:56.279Z,0.90
2022-11-10T01:20:41.381Z,0.90
2022-11-10T01:23:26.428Z,2.78
2022-11-10T01:26:12.731Z,2.08
2022-11-10T01:28:57.727Z,1.77
2022-11-10T01:31:42.725Z,0.90
2022-11-10T01:34:27.821Z,14.73
2022-11-10T01:37:12.904Z,7.07
2022-11-10T01:39:57.929Z,5.65
2022-11-10T01:42:55.498Z,1.80
2022-11-10T01:46:00.222Z,1.10
2022-11-10T01:48:57.141Z,1.02
2022-11-10T01:52:11.371Z,3.58
2022-11-10T01:54:56.448Z,3.55
2022-11-10T01:57:42.022Z,2.42
2022-11-10T02:00:27.445Z,1.15
2022-11-10T02:03:35.485Z,1.25
2022-11-10T02:06:24.485Z,1.40
2022-11-10T02:09:09.757Z,1.52
2022-11-10T02:11:56.005Z,10.73
2022-11-10T02:14:42.074Z,3.50
2022-11-10T02:17:26.911Z,0.80
2022-11-10T02:20:15.712Z,1.75
2022-11-10T02:23:15.405Z,8.10
2022-11-10T02:26:01.716Z,1.02
2022-11-10T02:28:46.680Z,2.53
2022-11-10T02:31:31.632Z,1.92
2022-11-10T02:34:16.670Z,3.75
2022-11-10T02:37:01.789Z,1.63
2022-11-10T02:39:46.525Z,0.85
2022-11-10T02:42:31.343Z,1.88
2022-11-10T02:45:16.236Z,2.83
2022-11-10T02:48:01.133Z,5.03
2022-11-10T02:50:46.153Z,5.10
2022-11-10T02:53:31.449Z,2.90
2022-11-10T02:56:16.303Z,3.03
2022-11-10T02:59:01.548Z,2.13
2022-11-10T03:01:46.856Z,1.38
2022-11-10T03:04:31.773Z,2.58
2022-11-10T03:07:16.634Z,3.45
2022-11-10T03:10:01.530Z,2.47
2022-11-10T03:12:47.110Z,3.65
2022-11-10T03:15:31.909Z,2.28
2022-11-10T03:18:16.756Z,3.03
2022-11-10T03:21:01.775Z,2.10
2022-11-10T03:23:46.633Z,1.83
2022-11-10T03:26:31.603Z,2.17
2022-11-10T03:29:16.368Z,2.33
2022-11-10T03:32:01.292Z,1.45
2022-11-10T03:34:46.101Z,1.48
2022-11-10T03:37:30.990Z,2.38
2022-11-10T03:40:15.966Z,1.45
2022-11-10T03:43:01.052Z,1.50
2022-11-10T03:45:45.875Z,2.33
2022-11-10T03:48:30.781Z,3.08
2022-11-10T03:51:15.732Z,3.00
2022-11-10T03:54:00.457Z,1.98
2022-11-10T03:56:45.257Z,2.28
2022-11-10T03:59:30.307Z,1.40
2022-11-10T04:02:15.295Z,8.63
2022-11-10T04:05:18.888Z,4.25
2022-11-10T04:08:30.620Z,6.63
2022-11-10T04:11:38.629Z,3.95
2022-11-10T04:14:42.329Z,17.40
2022-11-10T04:17:27.409Z,11.75
2022-11-10T04:20:12.571Z,6.18
2022-11-10T04:23:16.281Z,24.75
2022-11-10T04:26:28.522Z,13.60
2022-11-10T04:29:18.567Z,14.80
2022-11-10T04:32:03.627Z,17.83
2022-11-10T04:34:48.717Z,28.88
2022-11-10T04:37:33.498Z,15.15
2022-11-10T04:40:18.500Z,20.70
2022-11-10T04:43:03.269Z,9.77
2022-11-10T04:45:48.480Z,8.50
2022-11-10T04:48:34.835Z,3.10
2022-11-10T04:51:22.251Z,11.75
2022-11-10T04:54:07.734Z,2.42
2022-11-10T04:56:52.646Z,25.60
2022-11-10T04:59:37.573Z,19.88
2022-11-10T05:02:22.455Z,16.50
2022-11-10T05:05:07.594Z,23.52
2022-11-10T05:07:52.694Z,2.00
2022-11-10T05:10:38.245Z,19.80
2022-11-10T05:13:23.710Z,14.52
2022-11-10T05:16:09.285Z,5.82
2022-11-10T05:18:55.929Z,12.60
2022-11-10T05:21:40.888Z,20.63
2022-11-10T05:24:25.614Z,13.27
2022-11-10T05:27:10.550Z,28.20
2022-11-10T05:29:55.460Z,21.55
2022-11-10T05:32:40.348Z,15.23
2022-11-10T05:35:25.690Z,18.95
2022-11-10T05:38:10.584Z,9.15
2022-11-10T05:40:55.848Z,8.75
2022-11-10T05:43:40.711Z,6.78
2022-11-10T05:46:26.017Z,14.98
2022-11-10T05:49:11.209Z,4.63
2022-11-10T05:51:55.949Z,6.50
2022-11-10T05:54:40.713Z,2.67
2022-11-10T05:57:25.622Z,6.57
2022-11-10T06:00:11.499Z,5.07
2022-11-10T06:03:05.903Z,3.10
2022-11-10T06:05:51.018Z,6.68
2022-11-10T06:08:35.990Z,15.95
2022-11-10T06:11:20.920Z,10.00
2022-11-10T06:14:05.901Z,43.70
2022-11-10T06:16:50.736Z,54.63
2022-11-10T06:19:35.549Z,44.92
2022-11-10T06:22:20.477Z,44.13
2022-11-10T06:25:05.989Z,29.92
2022-11-10T06:27:51.144Z,42.20
2022-11-10T06:30:37.560Z,29.48
2022-11-10T06:33:22.945Z,20.60
2022-11-10T06:36:09.010Z,32.53
2022-11-10T06:38:53.697Z,23.77
2022-11-10T06:41:38.602Z,25.42
2022-11-10T06:44:23.712Z,14.07
2022-11-10T06:47:08.894Z,12.80
2022-11-10T06:49:53.796Z,16.15
2022-11-10T06:52:38.627Z,8.25
2022-11-10T06:55:24.123Z,6.50
2022-11-10T06:58:10.144Z,6.43
2022-11-10T07:00:55.130Z,14.82
2022-11-10T07:03:58.501Z,13.65
2022-11-10T07:06:47.430Z,5.85
2022-11-10T07:09:32.288Z,25.65
2022-11-10T07:12:17.212Z,13.70
2022-11-10T07:15:02.230Z,13.70
2022-11-10T07:17:47.458Z,21.13
2022-11-10T07:20:32.302Z,21.42
2022-11-10T07:23:17.289Z,17.55
2022-11-10T07:26:02.216Z,77.20
2022-11-10T07:28:47.476Z,28.65
2022-11-10T07:31:32.300Z,19.55
2022-11-10T07:34:17.123Z,22.67
2022-11-10T07:37:02.097Z,9.55
2022-11-10T07:39:46.908Z,17.25
2022-11-10T07:42:31.851Z,12.32
2022-11-10T07:45:16.778Z,11.82
2022-11-10T07:48:06.751Z,8.05
2022-11-10T07:50:51.753Z,6.43
2022-11-10T07:53:36.633Z,11.63
2022-11-10T07:56:21.887Z,10.32
2022-11-10T07:59:06.767Z,7.40
2022-11-10T08:01:51.865Z,5.43
2022-11-10T08:04:36.595Z,4.22
2022-11-10T08:07:21.799Z,5.25
2022-11-10T08:10:07.537Z,5.95
2022-11-10T08:12:57.461Z,5.57
2022-11-10T08:15:42.777Z,5.97
2022-11-10T08:18:33.896Z,16.63
2022-11-10T08:21:20.548Z,15.70
2022-11-10T08:24:05.654Z,6.65
2022-11-10T08:26:50.889Z,4.35
2022-11-10T08:29:35.749Z,10.60
2022-11-10T08:32:21.197Z,16.95
2022-11-10T08:35:06.424Z,9.68
2022-11-10T08:37:51.449Z,6.97
2022-11-10T08:40:37.229Z,5.30
2022-11-10T08:43:22.709Z,5.43
2022-11-10T08:46:08.278Z,6.22
2022-11-10T08:48:53.333Z,5.57
2022-11-10T08:51:39.361Z,4.13
2022-11-10T08:54:24.577Z,3.47
2022-11-10T08:57:09.277Z,3.45
2022-11-10T08:59:54.097Z,3.67
2022-11-10T09:02:38.741Z,3.50
2022-11-10T09:05:23.845Z,3.03
2022-11-10T09:08:09.341Z,6.50
2022-11-10T09:10:54.621Z,5.15
2022-11-10T09:13:39.734Z,2.60
2022-11-10T09:16:24.593Z,3.03
2022-11-10T09:19:09.470Z,3.08
2022-11-10T09:21:54.172Z,2.20
2022-11-10T09:24:39.147Z,2.80
2022-11-10T09:27:23.880Z,1.63
2022-11-10T09:30:13.060Z,1.67
2022-11-10T09:33:02.167Z,2.00
2022-11-10T09:35:47.344Z,2.10
2022-11-10T09:38:32.160Z,1.60
2022-11-10T09:41:17.627Z,2.72
2022-11-10T09:44:17.826Z,1.42
2022-11-10T09:47:18.622Z,2.33
2022-11-10T09:50:06.567Z,1.55
2022-11-10T09:52:52.841Z,1.05
2022-11-10T09:55:44.828Z,3.13
2022-11-10T09:58:37.322Z,1.52
2022-11-10T10:01:47.266Z,1.63
2022-11-10T10:04:51.522Z,1.80
2022-11-10T10:07:51.263Z,1.33
2022-11-10T10:10:51.754Z,2.33
2022-11-10T10:13:55.650Z,2.55
2022-11-10T10:16:50.575Z,1.48
2022-11-10T10:19:40.784Z,2.28
2022-11-10T10:22:40.879Z,2.67
2022-11-10T10:25:27.707Z,3.25
2022-11-10T10:31:33.721Z,4.97
2022-11-10T10:34:23.185Z,3.13
2022-11-10T10:37:39.187Z,3.20
2022-11-10T10:40:24.897Z,1.75
2022-11-10T10:43:10.180Z,3.30
2022-11-10T10:46:11.597Z,3.45
2022-11-10T10:49:28.435Z,1.23
2022-11-10T10:55:09.646Z,1.13
2022-11-10T10:58:03.905Z,0.95
2022-11-10T11:00:56.341Z,1.77
2022-11-10T11:03:44.278Z,2.20
2022-11-10T11:06:35.228Z,0.75
2022-11-10T11:09:30.334Z,1.48
2022-11-10T11:12:20.150Z,7.07
2022-11-10T11:15:31.402Z,1.70
2022-11-10T11:18:20.499Z,2.70
2022-11-10T11:21:09.056Z,3.40
2022-11-10T11:24:05.370Z,1.20
2022-11-10T11:27:03.253Z,0.82
2022-11-10T11:30:21.057Z,1.00
2022-11-10T11:33:12.973Z,2.60
2022-11-10T11:36:21.024Z,1.00
2022-11-10T11:39:13.681Z,0.80
2022-11-10T11:42:15.527Z,1.55
2022-11-10T11:45:20.124Z,0.70
2022-11-10T11:48:13.400Z,1.40
2022-11-10T11:51:24.957Z,1.10
2022-11-10T11:54:28.929Z,1.90
2022-11-10T11:57:40.477Z,1.42
2022-11-10T12:00:25.282Z,1.77
2022-11-10T12:03:16.997Z,1.35
2022-11-10T12:06:26.530Z,1.83
2022-11-10T12:09:26.193Z,1.90
2022-11-10T12:12:22.490Z,1.83
2022-11-10T12:15:24.993Z,0.80
2022-11-10T12:18:25.127Z,2.00
2022-11-10T12:21:21.028Z,1.25
2022-11-10T12:24:24.657Z,0.80
2022-11-10T12:27:44.472Z,0.80
2022-11-10T12:30:31.016Z,0.65
2022-11-10T12:33:44.240Z,2.22
2022-11-10T12:36:31.304Z,1.63
2022-11-10T12:42:19.343Z,0.80
2022-11-10T12:45:06.050Z,1.90
2022-11-10T12:51:03.310Z,0.90
2022-11-10T12:53:49.006Z,1.45
2022-11-10T12:57:02.118Z,1.20
2022-11-10T13:00:01.837Z,1.30
2022-11-10T13:02:55.395Z,1.20
2022-11-10T13:05:45.204Z,1.23
2022-11-10T13:08:56.675Z,1.58
2022-11-10T13:11:42.368Z,1.58
2022-11-10T13:14:31.400Z,1.45
2022-11-10T13:17:28.612Z,0.73
2022-11-10T13:20:38.655Z,1.73
2022-11-10T13:23:31.469Z,1.13
2022-11-10T13:26:39.596Z,1.48
2022-11-10T13:29:32.222Z,1.60
2022-11-10T13:32:23.066Z,1.13
2022-11-10T13:35:44.372Z,0.80
2022-11-10T13:38:32.833Z,1.35
2022-11-10T13:41:25.031Z,1.08
2022-11-10T13:44:32.884Z,0.63
2022-11-10T13:47:44.332Z,0.77
2022-11-10T13:50:37.811Z,1.17
2022-11-10T13:53:44.521Z,1.20
2022-11-10T13:56:49.097Z,1.25
2022-11-10T13:59:53.086Z,0.70
2022-11-10T14:02:38.914Z,0.80
2022-11-10T14:05:30.226Z,0.70
2022-11-10T14:08:23.634Z,1.33
2022-11-10T14:11:35.457Z,0.60
2022-11-10T14:14:23.351Z,1.48
2022-11-10T14:17:25.706Z,1.10
2022-11-10T14:20:34.575Z,0.75
2022-11-10T14:23:37.872Z,0.68
2022-11-10T14:26:37.968Z,0.93
2022-11-10T14:29:32.320Z,3.67
2022-11-10T14:32:22.885Z,0.77
2022-11-10T14:35:22.369Z,0.80
2022-11-10T14:38:20.886Z,1.15
2022-11-10T14:41:06.985Z,1.00
2022-11-10T14:44:03.636Z,1.17
2022-11-10T14:46:48.900Z,1.00
2022-11-10T14:52:21.064Z,0.70
2022-11-10T14:55:19.444Z,1.05
2022-11-10T14:58:07.894Z,0.70
2022-11-10T15:00:53.887Z,2.38
2022-11-10T15:03:41.925Z,1.60
2022-11-10T15:06:27.710Z,0.57
2022-11-10T15:09:15.457Z,4.05
2022-11-10T15:12:03.595Z,1.65
2022-11-10T15:14:58.113Z,0.60
2022-11-10T15:17:46.026Z,0.80
2022-11-10T15:20:32.631Z,0.70
2022-11-10T15:23:30.514Z,0.70
2022-11-10T15:26:24.292Z,0.55
2022-11-10T15:29:23.555Z,0.70
2022-11-10T15:32:15.640Z,0.60
2022-11-10T15:35:31.715Z,1.92
2022-11-10T15:38:20.745Z,0.75
2022-11-10T15:41:12.743Z,1.58
2022-11-10T15:43:57.776Z,2.83
2022-11-10T15:46:44.184Z,1.20
2022-11-10T15:49:35.822Z,1.40
2022-11-10T15:52:22.727Z,1.35
2022-11-10T15:55:20.094Z,2.67
2022-11-10T15:58:11.789Z,6.85
2022-11-10T16:00:57.071Z,2.42
2022-11-10T16:03:42.295Z,4.55
2022-11-10T16:06:29.828Z,3.38
2022-11-10T16:09:15.049Z,4.72
2022-11-10T16:12:00.162Z,3.92
2022-11-10T16:14:49.601Z,4.43
2022-11-10T16:17:34.973Z,4.05
2022-11-10T16:20:20.155Z,7.22
2022-11-10T16:23:05.324Z,5.97
2022-11-10T16:25:54.577Z,12.38
2022-11-10T16:28:42.004Z,5.90
2022-11-10T16:31:27.765Z,6.80
2022-11-10T16:34:14.729Z,4.35
2022-11-10T16:37:00.709Z,6.40
2022-11-10T16:39:45.985Z,5.67
2022-11-10T16:42:31.107Z,2.13
2022-11-10T16:45:23.609Z,4.07
2022-11-10T16:48:08.960Z,3.75
2022-11-10T16:50:57.010Z,5.07
2022-11-10T16:53:42.330Z,5.72
2022-11-10T16:56:27.592Z,4.70
2022-11-10T16:59:13.577Z,7.15
2022-11-10T17:01:58.357Z,10.25
2022-11-10T17:04:44.014Z,9.55
2022-11-10T17:07:29.597Z,10.98
2022-11-10T17:10:16.383Z,7.50
2022-11-10T17:13:01.444Z,6.72
2022-11-10T17:15:47.041Z,7.63
2022-11-10T17:18:33.662Z,5.13
2022-11-10T17:21:19.858Z,5.53
2022-11-10T17:24:05.225Z,5.80
2022-11-10T17:26:50.412Z,3.65
2022-11-10T17:29:35.717Z,3.90
2022-11-10T17:32:27.819Z,2.92
2022-11-10T17:35:13.508Z,4.93
2022-11-10T17:37:59.502Z,3.50
2022-11-10T17:40:44.353Z,3.42
2022-11-10T17:43:29.216Z,3.28
2022-11-10T17:46:14.988Z,3.35
2022-11-10T17:49:02.995Z,4.70
2022-11-10T17:51:48.451Z,5.72
2022-11-10T17:54:33.694Z,5.85
2022-11-10T17:57:18.574Z,3.53
2022-11-10T18:00:05.254Z,4.85
2022-11-10T18:05:41.163Z,3.83
2022-11-10T18:08:26.315Z,4.38
2022-11-10T18:11:13.524Z,4.00
2022-11-10T18:13:58.258Z,6.50
2022-11-10T18:16:43.150Z,4.05
2022-11-10T18:19:28.163Z,5.25
2022-11-10T18:22:13.360Z,4.15
2022-11-10T18:24:58.403Z,2.97
2022-11-10T18:27:43.578Z,4.35
2022-11-10T18:30:33.792Z,3.22
2022-11-10T18:33:20.124Z,8.05
2022-11-10T18:36:06.348Z,4.53
2022-11-10T18:38:51.317Z,3.97
2022-11-10T18:41:52.381Z,2.83
2022-11-10T18:44:38.238Z,4.18
2022-11-10T18:47:23.374Z,6.70
2022-11-10T18:50:09.057Z,2.80
2022-11-10T18:52:54.378Z,3.38
2022-11-10T18:55:45.221Z,6.15
2022-11-10T18:58:30.979Z,6.45
2022-11-10T19:01:16.563Z,9.68
2022-11-10T19:04:01.463Z,9.98
2022-11-10T19:06:46.368Z,4.38
2022-11-10T19:09:31.402Z,15.18
2022-11-10T19:12:16.381Z,16.92
2022-11-10T19:15:01.503Z,8.93
2022-11-10T19:17:46.647Z,7.28
2022-11-10T19:20:31.401Z,4.03
2022-11-10T19:23:16.261Z,4.15
2022-11-10T19:26:05.311Z,3.70
2022-11-10T19:28:50.702Z,4.00
2022-11-10T19:31:35.729Z,4.20
2022-11-10T19:34:21.222Z,2.55
2022-11-10T19:37:07.195Z,3.33
2022-11-10T19:39:52.063Z,11.10
2022-11-10T19:42:37.295Z,11.25
2022-11-10T19:45:22.249Z,16.67
2022-11-10T19:48:07.479Z,11.35
2022-11-10T19:50:56.323Z,10.35
2022-11-10T19:53:42.314Z,11.05
2022-11-10T19:56:31.645Z,16.85
2022-11-10T19:59:19.191Z,14.57
2022-11-10T20:02:04.180Z,18.77
2022-11-10T20:05:07.824Z,13.88
2022-11-10T20:08:11.140Z,12.80
2022-11-10T20:11:17.532Z,18.08
2022-11-10T20:14:03.711Z,18.73
2022-11-10T20:16:48.606Z,17.92
2022-11-10T20:19:40.849Z,16.58
2022-11-10T20:22:26.651Z,11.57
2022-11-10T20:25:11.381Z,14.85
2022-11-10T20:27:56.911Z,23.42
2022-11-10T20:30:44.327Z,27.35
2022-11-10T20:33:30.648Z,24.90
2022-11-10T20:36:20.865Z,17.27
2022-11-10T20:39:06.284Z,20.38
2022-11-10T20:41:52.462Z,10.95
2022-11-10T20:44:37.320Z,22.40
2022-11-10T20:47:22.429Z,13.80
2022-11-10T20:50:13.042Z,11.75
2022-11-10T20:52:59.777Z,13.82
2022-11-10T20:55:53.558Z,9.85
2022-11-10T20:58:39.635Z,10.60
2022-11-10T21:01:24.990Z,9.73
2022-11-10T21:04:10.876Z,7.90
2022-11-10T21:06:56.101Z,8.52
2022-11-10T21:09:40.890Z,8.93
2022-11-10T21:12:44.654Z,12.45
2022-11-10T21:15:29.709Z,4.95
2022-11-10T21:18:14.664Z,5.35
2022-11-10T21:20:59.627Z,7.22
2022-11-10T21:23:44.383Z,22.98
2022-11-10T21:26:30.569Z,24.30
2022-11-10T21:29:15.419Z,14.55
2022-11-10T21:32:00.313Z,4.70
2022-11-10T21:34:47.097Z,4.68
2022-11-10T21:37:31.906Z,9.95
2022-11-10T21:40:16.786Z,12.05
2022-11-10T21:43:01.583Z,8.10
2022-11-10T21:45:46.422Z,5.00
2022-11-10T21:48:31.317Z,5.30
2022-11-10T21:51:16.147Z,6.25
2022-11-10T21:54:01.072Z,3.75
2022-11-10T21:56:45.921Z,4.97
2022-11-10T21:59:30.757Z,4.53
2022-11-10T22:02:15.789Z,4.47
2022-11-10T22:05:00.612Z,3.70
2022-11-10T22:07:45.472Z,3.60
2022-11-10T22:10:49.062Z,4.20
2022-11-10T22:13:52.830Z,3.15
2022-11-10T22:17:03.673Z,3.80
2022-11-10T22:19:48.701Z,4.32
2022-11-10T22:22:33.571Z,5.25
2022-11-10T22:25:18.432Z,4.90
2022-11-10T22:28:03.523Z,4.85
2022-11-10T22:30:48.603Z,5.38
2022-11-10T22:33:38.257Z,4.40
2022-11-10T22:36:23.433Z,3.65
2022-11-10T22:39:08.496Z,5.18
2022-11-10T22:42:12.473Z,3.50
2022-11-10T22:44:57.873Z,4.07
2022-11-10T22:48:01.975Z,4.32
2022-11-10T22:50:54.681Z,4.05
2022-11-10T22:53:39.831Z,3.72
2022-11-10T22:56:25.074Z,3.30
2022-11-10T22:59:10.764Z,4.40
2022-11-10T23:01:56.039Z,4.18
2022-11-10T23:04:41.019Z,3.15
2022-11-10T23:07:25.801Z,3.17
2022-11-10T23:10:10.773Z,4.35
2022-11-10T23:12:56.142Z,4.72
2022-11-10T23:15:41.931Z,4.57
2022-11-10T23:18:26.996Z,4.40
2022-11-10T23:21:14.362Z,2.95
2022-11-10T23:23:59.572Z,3.58
2022-11-10T23:26:44.596Z,3.50
2022-11-10T23:29:29.330Z,3.42
2022-11-10T23:32:14.157Z,3.35
2022-11-10T23:34:59.030Z,2.35
2022-11-10T23:37:43.850Z,2.35
2022-11-10T23:40:28.661Z,4.00
2022-11-10T23:43:13.541Z,3.13
2022-11-10T23:46:07.492Z,2.88
2022-11-10T23:48:53.275Z,1.92
2022-11-10T23:51:38.091Z,2.50
2022-11-10T23:54:23.001Z,1.83
2022-11-10T23:57:07.866Z,3.13
2022-11-10T23:59:52.683Z,3.35
